^^
Saratoga-Weather Station Historical Data
Daily Summary for May 18, 2022 Units:  English    Metric   Both
Daily Weekly Monthly Yearly Custom
  High: Low: Average:
Temperature: 86.4 °F 55.6 °F 71.2 °F
Dew Point: 61.7 °F 52.5 °F 57 °F
Humidity: 92% 34% 64%
Wind Speed: 6mph 0mph 1mph
Wind Gust: 11mph - -
Wind- - ESE
Pressure: 30.1 in 30 in -
Precipitation: 0 in    
Historical Graphs
 
 
Tabular Data for May 18, 2022
Time Temperature Dew Point Pressure Wind Wind Speed Wind Gust Humidity Rainfall Rate (Hourly) solar
00:00 63 °F 55.6 °F 30.1 in Calm     77% 0 in 0 W/m2
00:06 62.8 °F 55.8 °F 30.1 in Calm     78% 0 in 0 W/m2
00:11 62.4 °F 55.4 °F 30.1 in Calm     78% 0 in 0 W/m2
00:16 62.4 °F 55.4 °F 30.1 in Calm     78% 0 in 0 W/m2
00:21 62.2 °F 55.2 °F 30.1 in Calm     78% 0 in 0 W/m2
00:26 62.2 °F 55.6 °F 30.1 in Calm     79% 0 in 0 W/m2
00:31 62.1 °F 55.8 °F 30.1 in Calm     80% 0 in 0 W/m2
00:36 61.7 °F 55.4 °F 30.1 in Calm     80% 0 in 0 W/m2
00:41 61.5 °F 55.2 °F 30.1 in Calm     80% 0 in 0 W/m2
00:46 61.3 °F 55 °F 30.1 in Calm     80% 0 in 0 W/m2
00:51 61.2 °F 55.2 °F 30.1 in SE 0.9 mph 1 mph 81% 0 in 0 W/m2
00:56 61 °F 55.4 °F 30.1 in Calm     82% 0 in 0 W/m2
01:01 61 °F 55.4 °F 30.1 in Calm     82% 0 in 0 W/m2
01:06 60.6 °F 55 °F 30.1 in Calm     82% 0 in 0 W/m2
01:11 60.6 °F 55.4 °F 30.1 in Calm     83% 0 in 0 W/m2
01:16 60.4 °F 55.6 °F 30.1 in Calm     84% 0 in 0 W/m2
01:21 60.3 °F 55.4 °F 30.1 in Calm     84% 0 in 0 W/m2
01:26 60.3 °F 55.4 °F 30.1 in Calm     84% 0 in 0 W/m2
01:31 60.3 °F 55.4 °F 30.1 in Calm     84% 0 in 0 W/m2
01:36 60.1 °F 55.2 °F 30.1 in Calm     84% 0 in 0 W/m2
01:41 60.1 °F 55.2 °F 30.1 in Calm     84% 0 in 0 W/m2
01:46 60.1 °F 55.6 °F 30.1 in Calm     85% 0 in 0 W/m2
01:51 59.9 °F 55.4 °F 30.1 in Calm     85% 0 in 0 W/m2
01:56 59.9 °F 55.4 °F 30.1 in Calm     85% 0 in 0 W/m2
02:01 59.7 °F 55.6 °F 30.1 in Calm     86% 0 in 0 W/m2
02:06 59.7 °F 55.6 °F 30.1 in Calm     86% 0 in 0 W/m2
02:11 59.5 °F 55.6 °F 30.1 in Calm     87% 0 in 0 W/m2
02:16 59.5 °F 55.6 °F 30.1 in Calm     87% 0 in 0 W/m2
02:21 59.5 °F 55.6 °F 30.1 in Calm     87% 0 in 0 W/m2
02:26 59.4 °F 55.4 °F 30.1 in Calm     87% 0 in 0 W/m2
02:31 59.4 °F 55.4 °F 30.1 in Calm     87% 0 in 0 W/m2
02:36 59.2 °F 55.4 °F 30.1 in Calm     87% 0 in 0 W/m2
02:41 59 °F 55.2 °F 30.1 in Calm     87% 0 in 0 W/m2
02:46 58.8 °F 55 °F 30.1 in Calm     87% 0 in 0 W/m2
02:51 58.6 °F 54.9 °F 30.1 in Calm     87% 0 in 0 W/m2
02:56 58.6 °F 55 °F 30.1 in Calm     88% 0 in 0 W/m2
03:01 58.5 °F 54.9 °F 30.1 in Calm     88% 0 in 0 W/m2
03:06 58.5 °F 54.9 °F 30.1 in Calm     88% 0 in 0 W/m2
03:11 58.3 °F 54.7 °F 30.1 in Calm     88% 0 in 0 W/m2
03:16 58.3 °F 54.7 °F 30.1 in Calm     88% 0 in 0 W/m2
03:21 58.3 °F 54.7 °F 30.1 in Calm     88% 0 in 0 W/m2
03:26 58.1 °F 54.5 °F 30.1 in Calm     88% 0 in 0 W/m2
03:31 57.9 °F 54.3 °F 30.1 in Calm     88% 0 in 0 W/m2
03:36 57.9 °F 54.3 °F 30.1 in Calm     88% 0 in 0 W/m2
03:41 57.7 °F 54.5 °F 30.1 in Calm     89% 0 in 0 W/m2
03:46 57.7 °F 54.5 °F 30.1 in Calm     89% 0 in 0 W/m2
03:51 57.7 °F 54.5 °F 30.1 in Calm     89% 0 in 0 W/m2
03:56 57.6 °F 54.3 °F 30.1 in Calm     89% 0 in 0 W/m2
04:01 57.4 °F 54.1 °F 30.1 in Calm     89% 0 in 0 W/m2
04:06 57.4 °F 54.1 °F 30.1 in Calm     89% 0 in 0 W/m2
04:11 57 °F 53.8 °F 30.1 in Calm     89% 0 in 0 W/m2
04:16 56.8 °F 53.6 °F 30.1 in Calm     89% 0 in 0 W/m2
04:22 56.8 °F 54 °F 30.1 in Calm     90% 0 in 0 W/m2
04:27 56.7 °F 53.4 °F 30.1 in Calm     89% 0 in 0 W/m2
04:32 56.7 °F 53.4 °F 30.1 in Calm     89% 0 in 0 W/m2
04:37 56.5 °F 53.2 °F 30.1 in Calm     89% 0 in 0 W/m2
04:42 56.7 °F 53.8 °F 30.1 in Calm     90% 0 in 0 W/m2
04:47 56.7 °F 53.8 °F 30.1 in Calm     90% 0 in 0 W/m2
04:52 56.7 °F 53.4 °F 30.1 in Calm     89% 0 in 0 W/m2
04:57 56.5 °F 53.2 °F 30.1 in Calm     89% 0 in 0 W/m2
05:02 56.5 °F 53.2 °F 30.1 in Calm     89% 0 in 0 W/m2
05:07 56.3 °F 53.1 °F 30.1 in Calm     89% 0 in 0 W/m2
05:12 56.3 °F 53.1 °F 30.1 in Calm     89% 0 in 0 W/m2
05:17 56.1 °F 52.9 °F 30.1 in Calm     89% 0 in 0 W/m2
05:22 55.9 °F 52.7 °F 30.1 in Calm     89% 0 in 0 W/m2
05:27 55.8 °F 52.5 °F 30.1 in Calm     89% 0 in 0 W/m2
05:32 55.8 °F 52.9 °F 30.1 in Calm     90% 0 in 0 W/m2
05:37 55.8 °F 52.9 °F 30.1 in Calm     90% 0 in 0 W/m2
05:42 55.6 °F 52.7 °F 30.1 in Calm     90% 0 in 0 W/m2
05:47 55.6 °F 52.7 °F 30.1 in Calm     90% 0 in 0 W/m2
05:52 55.6 °F 52.7 °F 30.1 in Calm     90% 0 in 5 W/m2
05:57 55.8 °F 53.2 °F 30.1 in Calm     91% 0 in 5 W/m2
06:02 55.8 °F 52.9 °F 30.1 in Calm     90% 0 in 9 W/m2
06:07 55.6 °F 52.7 °F 30.1 in Calm     90% 0 in 11 W/m2
06:12 55.6 °F 52.7 °F 30.1 in Calm     90% 0 in 12 W/m2
06:17 55.6 °F 52.7 °F 30.1 in Calm     90% 0 in 14 W/m2
06:22 55.8 °F 53.2 °F 30.1 in Calm     91% 0 in 12 W/m2
06:27 55.8 °F 53.2 °F 30.1 in Calm     91% 0 in 14 W/m2
06:32 55.9 °F 53.4 °F 30.1 in Calm     91% 0 in 14 W/m2
06:37 55.9 °F 53.4 °F 30.1 in Calm     91% 0 in 16 W/m2
06:42 55.9 °F 53.4 °F 30.1 in Calm     91% 0 in 19 W/m2
06:47 56.1 °F 53.6 °F 30.1 in Calm     91% 0 in 21 W/m2
06:52 56.1 °F 53.6 °F 30.1 in Calm     91% 0 in 23 W/m2
06:57 56.3 °F 53.8 °F 30.1 in Calm     91% 0 in 25 W/m2
07:02 56.5 °F 54 °F 30.1 in Calm     91% 0 in 28 W/m2
07:07 56.7 °F 54.1 °F 30.1 in Calm     91% 0 in 28 W/m2
07:12 56.7 °F 54.1 °F 30.1 in Calm     91% 0 in 46 W/m2
07:17 57 °F 54.5 °F 30.1 in Calm     91% 0 in 107 W/m2
07:22 57.7 °F 55.4 °F 30.1 in Calm     92% 0 in 97 W/m2
07:27 58.6 °F 55.9 °F 30.1 in Calm     91% 0 in 137 W/m2
07:32 60.3 °F 57 °F 30.1 in Calm     89% 0 in 151 W/m2
07:37 61.9 °F 57.4 °F 30.1 in SE 0.9 mph 1 mph 85% 0 in 163 W/m2
07:42 63.5 °F 57.6 °F 30.1 in Calm     81% 0 in 176 W/m2
07:47 64.8 °F 58.1 °F 30.1 in Calm     79% 0 in 195 W/m2
07:52 65.8 °F 57.4 °F 30.1 in Calm     74% 0 in 199 W/m2
07:57 66.6 °F 57.2 °F 30.1 in Calm     72% 0 in 227 W/m2
08:02 67.1 °F 57 °F 30.1 in SE 0.9 mph 1 mph 70% 0 in 234 W/m2
08:07 67.8 °F 57.2 °F 30.1 in ESE 2 mph 3 mph 69% 0 in 165 W/m2
08:12 68.2 °F 56.8 °F 30.1 in East 2 mph 3 mph 67% 0 in 90 W/m2
08:17 67.8 °F 56.5 °F 30.1 in NNE 0.9 mph 4 mph 67% 0 in 56 W/m2
08:22 67.8 °F 56.5 °F 30.1 in ENE 2 mph 2 mph 67% 0 in 51 W/m2
08:27 68 °F 56.7 °F 30.1 in ENE 0.9 mph 3 mph 67% 0 in 54 W/m2
08:32 68.2 °F 56.8 °F 30.1 in ESE 0.9 mph 2 mph 67% 0 in 51 W/m2
08:37 68.4 °F 57.4 °F 30.1 in East 2 mph 3 mph 68% 0 in 53 W/m2
08:42 68.4 °F 57 °F 30.1 in East 2 mph 2 mph 67% 0 in 54 W/m2
08:47 68.5 °F 56.7 °F 30.1 in East 0.9 mph 2 mph 66% 0 in 54 W/m2
08:52 69.1 °F 57.2 °F 30.1 in East 0.9 mph 3 mph 66% 0 in 54 W/m2
08:57 69.3 °F 57 °F 30.1 in ESE 0.9 mph 1 mph 65% 0 in 51 W/m2
09:02 69.1 °F 57.2 °F 30.1 in ENE 0.9 mph 2 mph 66% 0 in 54 W/m2
09:07 69.3 °F 57.4 °F 30.1 in ENE 0.9 mph 3 mph 66% 0 in 54 W/m2
09:12 69.3 °F 57.4 °F 30.1 in SE 2 mph 3 mph 66% 0 in 54 W/m2
09:17 69.3 °F 57.4 °F 30.1 in NE 2.9 mph 4 mph 66% 0 in 54 W/m2
09:22 69.4 °F 57.6 °F 30.1 in ENE 0.9 mph 3 mph 66% 0 in 54 W/m2
09:27 70 °F 57.2 °F 30.1 in NNE 2 mph 2 mph 64% 0 in 56 W/m2
09:32 70 °F 57.7 °F 30.1 in ESE 2.9 mph 3 mph 65% 0 in 58 W/m2
09:37 70.3 °F 58.1 °F 30.1 in NE 2 mph 2 mph 65% 0 in 60 W/m2
09:42 70.9 °F 58.1 °F 30.1 in ENE 2 mph 4 mph 64% 0 in 60 W/m2
09:47 70.9 °F 58.5 °F 30.1 in ENE 2 mph 3 mph 65% 0 in 62 W/m2
09:52 70.9 °F 58.1 °F 30.1 in East 2 mph 3 mph 64% 0 in 58 W/m2
09:57 71.2 °F 58.8 °F 30.1 in Calm   3 mph 65% 0 in 91 W/m2
10:02 71.8 °F 58.5 °F 30.1 in East 2.9 mph 6 mph 63% 0 in 527 W/m2
10:07 72 °F 58.3 °F 30.1 in East 2.9 mph 4 mph 62% 0 in 568 W/m2
10:12 72.1 °F 58.5 °F 30.1 in NE 0.9 mph 3 mph 62% 0 in 580 W/m2
10:17 72.1 °F 58.5 °F 30.1 in ESE 2 mph 4 mph 62% 0 in 591 W/m2
10:22 72.9 °F 59 °F 30.1 in NE 0.9 mph 4 mph 62% 0 in 605 W/m2
10:27 73 °F 59.2 °F 30.1 in NE 0.9 mph 3 mph 62% 0 in 621 W/m2
10:32 73.2 °F 59 °F 30.1 in ESE 2 mph 6 mph 61% 0 in 635 W/m2
10:37 73.6 °F 59.4 °F 30.1 in East 2 mph 5 mph 61% 0 in 643 W/m2
10:42 73.8 °F 59.5 °F 30.1 in East 0.9 mph 3 mph 61% 0 in 643 W/m2
10:48 73.9 °F 60.1 °F 30.1 in SE 2 mph 5 mph 62% 0 in 668 W/m2
10:53 74.5 °F 59.7 °F 30.1 in East 2.9 mph 3 mph 60% 0 in 675 W/m2
10:58 74.7 °F 60.3 °F 30.1 in East 2 mph 4 mph 61% 0 in 686 W/m2
11:03 75.2 °F 60.8 °F 30.1 in SE 2 mph 5 mph 61% 0 in 698 W/m2
11:08 75.6 °F 60.3 °F 30.1 in ESE 2 mph 3 mph 59% 0 in 708 W/m2
11:13 75.7 °F 59.9 °F 30.1 in ESE 2.9 mph 3 mph 58% 0 in 719 W/m2
11:18 76.1 °F 61.2 °F 30.1 in ESE 4 mph 4 mph 60% 0 in 735 W/m2
11:23 76.5 °F 61 °F 30.1 in NE 2.9 mph 4 mph 59% 0 in 738 W/m2
11:28 76.6 °F 60.3 °F 30.1 in East 2 mph 5 mph 57% 0 in 708 W/m2
11:33 76.6 °F 60.8 °F 30.1 in SE 2 mph 4 mph 58% 0 in 754 W/m2
11:38 77.2 °F 60.3 °F 30.1 in East 2 mph 5 mph 56% 0 in 763 W/m2
11:43 77.5 °F 60.1 °F 30.1 in Calm   4 mph 55% 0 in 777 W/m2
11:48 77.7 °F 59.7 °F 30.1 in East 4 mph 5 mph 54% 0 in 784 W/m2
11:53 78.1 °F 60.1 °F 30.1 in SE 2 mph 4 mph 54% 0 in 796 W/m2
12:03 78.8 °F 60.3 °F 30.1 in NE 2 mph 6 mph 53% 0 in 768 W/m2
12:08 79.2 °F 59 °F 30.1 in East 4 mph 4 mph 50% 0 in 773 W/m2
12:13 79.3 °F 59.7 °F 30.1 in ESE 4 mph 4 mph 51% 0 in 809 W/m2
12:18 79.5 °F 59.2 °F 30.1 in ENE 2 mph 3 mph 50% 0 in 807 W/m2
12:23 79.9 °F 58.5 °F 30.1 in SSW 0.9 mph 3 mph 48% 0 in 837 W/m2
12:28 80.1 °F 59.7 °F 30.1 in ESE 0.9 mph 4 mph 50% 0 in 835 W/m2
12:33 80.2 °F 59.9 °F 30.1 in East 6 mph 8 mph 50% 0 in 817 W/m2
12:38 80.4 °F 58.3 °F 30.1 in WNW 2.9 mph 3 mph 47% 0 in 824 W/m2
12:43 80.6 °F 59.7 °F 30.1 in East 2 mph 7 mph 49% 0 in 840 W/m2
12:48 81.1 °F 59.5 °F 30.1 in ESE 0.9 mph 4 mph 48% 0 in 835 W/m2
12:53 81.3 °F 57.9 °F 30.1 in NE 0.9 mph 7 mph 45% 0 in 840 W/m2
12:58 81.7 °F 58.8 °F 30.1 in East 4.9 mph 6 mph 46% 0 in 854 W/m2
13:03 81.9 °F 58.5 °F 30.1 in NE 0.9 mph 6 mph 45% 0 in 823 W/m2
13:08 81.7 °F 59.5 °F 30.1 in East 2 mph 4 mph 47% 0 in 851 W/m2
13:13 81.7 °F 58.8 °F 30.1 in NW 2 mph 4 mph 46% 0 in 847 W/m2
13:18 82 °F 59.9 °F 30.1 in SE 2.9 mph 4 mph 47% 0 in 858 W/m2
13:23 82.2 °F 58.1 °F 30.1 in SE 2.9 mph 3 mph 44% 0 in 867 W/m2
13:28 82.6 °F 57.7 °F 30.1 in NE 2.9 mph 6 mph 43% 0 in 868 W/m2
13:33 82 °F 57.9 °F 30.1 in Calm   4 mph 44% 0 in 858 W/m2
13:38 82.2 °F 57.6 °F 30.1 in Calm   6 mph 43% 0 in 867 W/m2
13:43 82.8 °F 57.9 °F 30.1 in NW 4 mph 5 mph 43% 0 in 868 W/m2
13:48 83.1 °F 59 °F 30.1 in East 2 mph 2 mph 44% 0 in 865 W/m2
13:53 83.1 °F 58.3 °F 30.1 in ESE 2.9 mph 6 mph 43% 0 in 870 W/m2
13:58 82.8 °F 57.4 °F 30.1 in NNE 2.9 mph 5 mph 42% 0 in 868 W/m2
14:03 82.6 °F 59 °F 30.1 in ESE 6 mph 6 mph 45% 0 in 870 W/m2
14:08 82.9 °F 58.8 °F 30.1 in ENE 4 mph 9 mph 44% 0 in 867 W/m2
14:13 83.3 °F 57.2 °F 30.1 in SSE 0.9 mph 2 mph 41% 0 in 858 W/m2
14:18 83.7 °F 56.8 °F 30.1 in NE 2.9 mph 9 mph 40% 0 in 867 W/m2
14:23 83.8 °F 57 °F 30.1 in East 0.9 mph 4 mph 40% 0 in 877 W/m2
14:28 83.8 °F 57 °F 30.1 in ESE 2.9 mph 3 mph 40% 0 in 874 W/m2
14:33 84 °F 55.8 °F 30.1 in NE 2.9 mph 6 mph 38% 0 in 877 W/m2
14:38 83.8 °F 57 °F 30.1 in East 2 mph 6 mph 40% 0 in 863 W/m2
14:43 83.8 °F 56.3 °F 30.1 in ESE 0.9 mph 2 mph 39% 0 in 863 W/m2
14:48 84 °F 57 °F 30.1 in SE 2.9 mph 5 mph 40% 0 in 863 W/m2
14:53 84.6 °F 56.8 °F 30.1 in East 2 mph 3 mph 39% 0 in 863 W/m2
14:58 84.9 °F 55 °F 30.1 in East 0.9 mph 4 mph 36% 0 in 854 W/m2
15:03 84.7 °F 54.9 °F 30.1 in East 2.9 mph 3 mph 36% 0 in 854 W/m2
15:08 84.7 °F 53.2 °F 30.1 in WSW 2 mph 4 mph 34% 0 in 854 W/m2
15:13 84.7 °F 54.1 °F 30.1 in NE 0.9 mph 3 mph 35% 0 in 833 W/m2
15:18 85.5 °F 54 °F 30.1 in ESE 4 mph 4 mph 34% 0 in 756 W/m2
15:23 85.6 °F 55.6 °F 30.1 in ESE 0.9 mph 7 mph 36% 0 in 826 W/m2
15:28 85.6 °F 54 °F 30.1 in East 2.9 mph 5 mph 34% 0 in 842 W/m2
15:33 85.6 °F 54 °F 30.1 in ESE 2.9 mph 5 mph 34% 0 in 759 W/m2
15:38 85.6 °F 54 °F 30.1 in East 2 mph 7 mph 34% 0 in 823 W/m2
15:43 85.5 °F 54.7 °F 30.1 in WNW 0.9 mph 2 mph 35% 0 in 812 W/m2
15:48 85.6 °F 55.6 °F 30.1 in East 6 mph 7 mph 36% 0 in 761 W/m2
15:58 85.6 °F 56.3 °F 30.1 in ENE 4 mph 7 mph 37% 0 in 765 W/m2
16:03 86 °F 55.9 °F 30.1 in East 2 mph 4 mph 36% 0 in 733 W/m2
16:08 86 °F 55.2 °F 30.1 in ESE 0.9 mph 4 mph 35% 0 in 638 W/m2
16:13 85.8 °F 55 °F 30.1 in ESE 2 mph 4 mph 35% 0 in 647 W/m2
16:18 86 °F 55.2 °F 30.1 in East 4 mph 7 mph 35% 0 in 531 W/m2
16:23 85.8 °F 55.8 °F 30.1 in ENE 4.9 mph 11 mph 36% 0 in 475 W/m2
16:28 85.5 °F 55.4 °F 30.1 in SE 0.9 mph 3 mph 36% 0 in 480 W/m2
16:33 85.6 °F 57.2 °F 30.1 in SE 0.9 mph 11 mph 38% 0 in 464 W/m2
16:38 85.8 °F 56.5 °F 30.1 in WSW 0.9 mph 3 mph 37% 0 in 487 W/m2
16:43 85.8 °F 55.8 °F 30.1 in NNW 2 mph 5 mph 36% 0 in 598 W/m2
16:48 85.8 °F 55.8 °F 30.1 in East 0.9 mph 4 mph 36% 0 in 654 W/m2
16:53 86 °F 55.9 °F 30.1 in East 2 mph 4 mph 36% 0 in 647 W/m2
16:58 86 °F 55.2 °F 30.1 in Calm   1 mph 35% 0 in 489 W/m2
17:03 85.8 °F 55.8 °F 30.1 in Calm   4 mph 36% 0 in 512 W/m2
17:08 85.6 °F 55.6 °F 30.1 in WSW 0.9 mph 1 mph 36% 0 in 601 W/m2
17:13 85.8 °F 55.8 °F 30.1 in East 4 mph 6 mph 36% 0 in 464 W/m2
17:18 86 °F 55.2 °F 30.1 in ENE 0.9 mph 6 mph 35% 0 in 513 W/m2
17:32 86.4 °F 57 °F 30.1 in East 2 mph 3 mph 37% 0 in 599 W/m2
17:37 86.4 °F 57 °F 30.1 in ENE 2 mph 2 mph 37% 0 in 473 W/m2
17:42 85.8 °F 55.8 °F 30.1 in East 0.9 mph 3 mph 36% 0 in 434 W/m2
17:47 85.6 °F 55.6 °F 30.1 in ESE 2.9 mph 4 mph 36% 0 in 429 W/m2
17:52 85.5 °F 55.4 °F 30.1 in East 4 mph 7 mph 36% 0 in 327 W/m2
18:03 85.3 °F 56.8 °F 30.1 in Calm   2 mph 38% 0 in 262 W/m2
18:21 85.1 °F 58.8 °F 30.1 in East 0.9 mph 1 mph 41% 0 in 281 W/m2
18:26 85.1 °F 58.8 °F 30.1 in East 0.9 mph 2 mph 41% 0 in 304 W/m2
18:31 84.9 °F 57.2 °F 30.1 in East 2.9 mph 4 mph 39% 0 in 287 W/m2
18:36 84.7 °F 57 °F 30 in ESE 0.9 mph 3 mph 39% 0 in 237 W/m2
18:41 84.9 °F 57.9 °F 30.1 in South 0.9 mph 4 mph 40% 0 in 167 W/m2
18:46 84.7 °F 57.7 °F 30 in Calm   1 mph 40% 0 in 151 W/m2
18:51 84.7 °F 58.5 °F 30 in ESE 0.9 mph 2 mph 41% 0 in 142 W/m2
18:56 84.6 °F 59.5 °F 30 in East 2 mph 4 mph 43% 0 in 130 W/m2
19:01 84.4 °F 60.1 °F 30 in SSE 0.9 mph 3 mph 44% 0 in 125 W/m2
19:06 83.8 °F 59 °F 30 in NE 4 mph 4 mph 43% 0 in 118 W/m2
19:11 83.7 °F 60.1 °F 30 in Calm   1 mph 45% 0 in 114 W/m2
19:16 83.5 °F 58.6 °F 30 in Calm   1 mph 43% 0 in 116 W/m2
19:21 83.5 °F 59.4 °F 30 in SSE 0.9 mph 2 mph 44% 0 in 114 W/m2
19:27 83.5 °F 59.9 °F 30 in ESE 2 mph 2 mph 45% 0 in 116 W/m2
19:32 83.7 °F 58.1 °F 30 in ESE 0.9 mph 4 mph 42% 0 in 113 W/m2
19:37 83.7 °F 61.3 °F 30 in ESE 0.9 mph 2 mph 47% 0 in 107 W/m2
19:42 83.7 °F 61.3 °F 30 in NE 0.9 mph 4 mph 47% 0 in 100 W/m2
19:47 83.5 °F 61.7 °F 30 in SSE 0.9 mph 2 mph 48% 0 in 90 W/m2
19:52 83.1 °F 61.3 °F 30 in SSE 0.9 mph 2 mph 48% 0 in 81 W/m2
19:57 82.8 °F 61 °F 30 in Calm   3 mph 48% 0 in 76 W/m2
20:02 82.2 °F 61.2 °F 30 in ESE 0.9 mph 2 mph 49% 0 in 88 W/m2
20:07 81.9 °F 60.8 °F 30 in ESE 2 mph 3 mph 49% 0 in 62 W/m2
20:12 81.3 °F 61 °F 30 in ESE 0.9 mph 2 mph 50% 0 in 47 W/m2
20:17 80.6 °F 60.8 °F 30 in ESE 0.9 mph 2 mph 51% 0 in 44 W/m2
20:22 80.1 °F 60.8 °F 30 in Calm   2 mph 52% 0 in 40 W/m2
20:27 79.3 °F 60.3 °F 30 in Calm   2 mph 52% 0 in 35 W/m2
20:32 79 °F 60.4 °F 30 in ESE 2 mph 2 mph 53% 0 in 30 W/m2
20:37 78.4 °F 60.4 °F 30 in ESE 0.9 mph 1 mph 54% 0 in 26 W/m2
20:42 78.3 °F 59.7 °F 30 in ESE 0.9 mph 1 mph 53% 0 in 26 W/m2
20:47 77.7 °F 60.3 °F 30 in ESE 0.9 mph 1 mph 55% 0 in 25 W/m2
20:52 77.4 °F 59.9 °F 30 in Calm   1 mph 55% 0 in 19 W/m2
20:57 77.2 °F 59.7 °F 30 in ESE 0.9 mph 2 mph 55% 0 in 14 W/m2
21:02 76.6 °F 59.7 °F 30 in ESE 0.9 mph 1 mph 56% 0 in 11 W/m2
21:07 76.3 °F 59.9 °F 30 in Calm   1 mph 57% 0 in 7 W/m2
21:12 75.7 °F 59.4 °F 30 in ESE 0.9 mph 1 mph 57% 0 in 5 W/m2
21:17 75.2 °F 59.4 °F 30 in Calm   1 mph 58% 0 in 0 W/m2
21:22 74.7 °F 59.9 °F 30 in Calm     60% 0 in 0 W/m2
21:27 74.1 °F 59.4 °F 30 in Calm     60% 0 in 0 W/m2
21:32 73.8 °F 59.9 °F 30 in Calm     62% 0 in 0 W/m2
21:37 73.2 °F 59.4 °F 30 in Calm     62% 0 in 0 W/m2
21:42 72.9 °F 59.5 °F 30 in Calm     63% 0 in 0 W/m2
21:47 72.3 °F 59 °F 30 in Calm     63% 0 in 0 W/m2
21:52 72 °F 59.5 °F 30 in Calm     65% 0 in 0 W/m2
21:57 71.6 °F 59.2 °F 30 in Calm     65% 0 in 0 W/m2
22:02 71.2 °F 59.4 °F 30 in Calm     66% 0 in 0 W/m2
22:07 71.1 °F 59.5 °F 30 in Calm     67% 0 in 0 W/m2
22:12 70.5 °F 59.4 °F 30 in Calm     68% 0 in 0 W/m2
22:17 70.3 °F 59.4 °F 30 in Calm     68% 0 in 0 W/m2
22:22 70.2 °F 59.5 °F 30 in Calm     69% 0 in 0 W/m2
22:27 70 °F 59.4 °F 30 in Calm     69% 0 in 0 W/m2
22:32 70 °F 59.7 °F 30 in Calm     70% 0 in 0 W/m2
22:37 69.6 °F 59.4 °F 30 in Calm     70% 0 in 0 W/m2
22:42 69.4 °F 59.2 °F 30.1 in Calm     70% 0 in 0 W/m2
22:47 69.3 °F 59.5 °F 30.1 in Calm     71% 0 in 0 W/m2
22:52 69.1 °F 59.4 °F 30.1 in Calm     71% 0 in 0 W/m2
22:57 68.7 °F 59 °F 30.1 in Calm     71% 0 in 0 W/m2
23:02 68.5 °F 59.2 °F 30.1 in Calm     72% 0 in 0 W/m2
23:07 68.4 °F 59 °F 30.1 in Calm     72% 0 in 0 W/m2
23:12 68.2 °F 58.8 °F 30.1 in Calm     72% 0 in 0 W/m2
23:17 68 °F 58.6 °F 30.1 in Calm     72% 0 in 0 W/m2
23:22 67.8 °F 58.5 °F 30 in Calm     72% 0 in 0 W/m2
23:27 67.6 °F 58.6 °F 30 in Calm     73% 0 in 0 W/m2
23:32 67.5 °F 58.5 °F 30 in Calm     73% 0 in 0 W/m2
23:37 67.5 °F 58.5 °F 30.1 in Calm     73% 0 in 0 W/m2
23:42 67.3 °F 58.3 °F 30 in Calm     73% 0 in 0 W/m2
23:47 66.9 °F 57.9 °F 30 in Calm     73% 0 in 0 W/m2
23:52 66.9 °F 58.3 °F 30 in Calm     74% 0 in 0 W/m2
23:58 66.7 °F 58.1 °F 30 in Calm     74% 0 in 0 W/m2
Juneau County Weather
Compliments of Weather Underground - 4 mb